sensor_id;sensor_type;location;lat;lon;timestamp;temperature;humidity
16402;DHT22;8310;44.626;11.176;2022-10-17T00:02:02;19.70;54.40
16402;DHT22;8310;44.626;11.176;2022-10-17T00:04:29;19.60;54.40
16402;DHT22;8310;44.626;11.176;2022-10-17T00:06:58;19.50;54.50
16402;DHT22;8310;44.626;11.176;2022-10-17T00:09:25;19.50;54.60
16402;DHT22;8310;44.626;11.176;2022-10-17T00:11:54;19.50;54.60
16402;DHT22;8310;44.626;11.176;2022-10-17T00:14:21;19.50;54.70
16402;DHT22;8310;44.626;11.176;2022-10-17T00:16:49;19.40;54.70
16402;DHT22;8310;44.626;11.176;2022-10-17T00:19:17;19.40;54.80
16402;DHT22;8310;44.626;11.176;2022-10-17T00:21:44;19.50;54.90
16402;DHT22;8310;44.626;11.176;2022-10-17T00:24:14;19.50;54.80
16402;DHT22;8310;44.626;11.176;2022-10-17T00:26:42;19.40;54.90
16402;DHT22;8310;44.626;11.176;2022-10-17T00:29:09;19.50;55.00
16402;DHT22;8310;44.626;11.176;2022-10-17T00:31:37;19.50;55.00
16402;DHT22;8310;44.626;11.176;2022-10-17T00:34:05;19.50;55.00
16402;DHT22;8310;44.626;11.176;2022-10-17T00:36:32;19.40;55.00
16402;DHT22;8310;44.626;11.176;2022-10-17T00:39:00;19.40;55.00
16402;DHT22;8310;44.626;11.176;2022-10-17T00:41:31;19.40;54.90
16402;DHT22;8310;44.626;11.176;2022-10-17T00:44:01;19.40;55.00
16402;DHT22;8310;44.626;11.176;2022-10-17T00:46:31;19.40;55.00
16402;DHT22;8310;44.626;11.176;2022-10-17T00:49:02;19.30;54.90
16402;DHT22;8310;44.626;11.176;2022-10-17T00:51:35;19.30;55.00
16402;DHT22;8310;44.626;11.176;2022-10-17T00:54:04;19.20;55.00
16402;DHT22;8310;44.626;11.176;2022-10-17T00:56:33;19.20;54.90
16402;DHT22;8310;44.626;11.176;2022-10-17T00:59:01;19.10;54.90
16402;DHT22;8310;44.626;11.176;2022-10-17T01:01:29;19.10;54.90
16402;DHT22;8310;44.626;11.176;2022-10-17T01:03:57;19.10;54.90
16402;DHT22;8310;44.626;11.176;2022-10-17T01:06:24;19.00;54.80
16402;DHT22;8310;44.626;11.176;2022-10-17T01:08:52;18.90;54.80
16402;DHT22;8310;44.626;11.176;2022-10-17T01:11:29;18.90;55.20
16402;DHT22;8310;44.626;11.176;2022-10-17T01:14:04;18.90;55.00
16402;DHT22;8310;44.626;11.176;2022-10-17T01:16:40;18.80;55.00
16402;DHT22;8310;44.626;11.176;2022-10-17T01:19:29;18.80;55.00
16402;DHT22;8310;44.626;11.176;2022-10-17T01:22:03;18.70;55.00
16402;DHT22;8310;44.626;11.176;2022-10-17T01:24:51;18.70;55.00
16402;DHT22;8310;44.626;11.176;2022-10-17T01:27:42;18.70;55.10
16402;DHT22;8310;44.626;11.176;2022-10-17T01:33:14;18.70;55.30
16402;DHT22;8310;44.626;11.176;2022-10-17T01:35:49;18.70;55.30
16402;DHT22;8310;44.626;11.176;2022-10-17T01:38:21;18.70;55.30
16402;DHT22;8310;44.626;11.176;2022-10-17T01:40:57;18.70;55.30
16402;DHT22;8310;44.626;11.176;2022-10-17T01:43:32;18.70;55.40
16402;DHT22;8310;44.626;11.176;2022-10-17T01:46:03;18.60;55.30
16402;DHT22;8310;44.626;11.176;2022-10-17T01:48:35;18.60;55.30
16402;DHT22;8310;44.626;11.176;2022-10-17T01:51:08;18.60;55.40
16402;DHT22;8310;44.626;11.176;2022-10-17T01:53:41;18.60;55.40
16402;DHT22;8310;44.626;11.176;2022-10-17T01:56:13;18.60;55.40
16402;DHT22;8310;44.626;11.176;2022-10-17T01:58:45;18.60;55.40
16402;DHT22;8310;44.626;11.176;2022-10-17T02:01:16;18.60;55.40
16402;DHT22;8310;44.626;11.176;2022-10-17T02:03:48;18.50;55.30
16402;DHT22;8310;44.626;11.176;2022-10-17T02:06:17;18.60;55.50
16402;DHT22;8310;44.626;11.176;2022-10-17T02:08:46;18.50;55.50
16402;DHT22;8310;44.626;11.176;2022-10-17T02:11:17;18.50;55.40
16402;DHT22;8310;44.626;11.176;2022-10-17T02:14:03;18.50;55.40
16402;DHT22;8310;44.626;11.176;2022-10-17T02:16:36;18.50;55.30
16402;DHT22;8310;44.626;11.176;2022-10-17T02:19:23;18.50;55.70
16402;DHT22;8310;44.626;11.176;2022-10-17T02:22:02;18.50;55.50
16402;DHT22;8310;44.626;11.176;2022-10-17T02:24:36;18.50;55.60
16402;DHT22;8310;44.626;11.176;2022-10-17T02:27:10;18.50;55.60
16402;DHT22;8310;44.626;11.176;2022-10-17T02:29:45;18.50;55.40
16402;DHT22;8310;44.626;11.176;2022-10-17T02:32:17;18.40;55.40
16402;DHT22;8310;44.626;11.176;2022-10-17T02:34:51;18.40;55.50
16402;DHT22;8310;44.626;11.176;2022-10-17T02:37:24;18.40;55.50
16402;DHT22;8310;44.626;11.176;2022-10-17T02:39:53;18.30;55.50
16402;DHT22;8310;44.626;11.176;2022-10-17T02:42:23;18.30;55.50
16402;DHT22;8310;44.626;11.176;2022-10-17T02:44:52;18.30;55.40
16402;DHT22;8310;44.626;11.176;2022-10-17T02:47:25;18.20;55.20
16402;DHT22;8310;44.626;11.176;2022-10-17T02:49:56;18.10;55.00
16402;DHT22;8310;44.626;11.176;2022-10-17T02:52:28;18.00;55.00
16402;DHT22;8310;44.626;11.176;2022-10-17T02:55:03;17.90;55.20
16402;DHT22;8310;44.626;11.176;2022-10-17T02:57:35;17.90;55.40
16402;DHT22;8310;44.626;11.176;2022-10-17T03:00:07;17.80;55.30
16402;DHT22;8310;44.626;11.176;2022-10-17T03:02:39;17.80;56.00
16402;DHT22;8310;44.626;11.176;2022-10-17T03:05:11;17.80;55.60
16402;DHT22;8310;44.626;11.176;2022-10-17T03:07:39;17.90;55.70
16402;DHT22;8310;44.626;11.176;2022-10-17T03:10:06;17.90;55.60
16402;DHT22;8310;44.626;11.176;2022-10-17T03:12:34;17.90;55.70
16402;DHT22;8310;44.626;11.176;2022-10-17T03:15:01;17.90;55.60
16402;DHT22;8310;44.626;11.176;2022-10-17T03:17:29;17.90;55.50
16402;DHT22;8310;44.626;11.176;2022-10-17T03:19:57;17.80;55.30
16402;DHT22;8310;44.626;11.176;2022-10-17T03:22:26;17.70;55.20
16402;DHT22;8310;44.626;11.176;2022-10-17T03:24:54;17.60;55.30
16402;DHT22;8310;44.626;11.176;2022-10-17T03:27:21;17.50;55.30
16402;DHT22;8310;44.626;11.176;2022-10-17T03:29:50;17.50;55.50
16402;DHT22;8310;44.626;11.176;2022-10-17T03:32:17;17.50;55.70
16402;DHT22;8310;44.626;11.176;2022-10-17T03:34:45;17.60;55.90
16402;DHT22;8310;44.626;11.176;2022-10-17T03:37:17;17.60;55.90
16402;DHT22;8310;44.626;11.176;2022-10-17T03:39:46;17.60;55.80
16402;DHT22;8310;44.626;11.176;2022-10-17T03:42:13;17.60;55.80
16402;DHT22;8310;44.626;11.176;2022-10-17T03:44:42;17.60;55.80
16402;DHT22;8310;44.626;11.176;2022-10-17T03:47:09;17.50;55.80
16402;DHT22;8310;44.626;11.176;2022-10-17T03:49:37;17.50;55.80
16402;DHT22;8310;44.626;11.176;2022-10-17T03:52:04;17.50;55.70
16402;DHT22;8310;44.626;11.176;2022-10-17T03:54:32;17.50;55.80
16402;DHT22;8310;44.626;11.176;2022-10-17T03:57:01;17.50;55.80
16402;DHT22;8310;44.626;11.176;2022-10-17T03:59:29;17.50;55.80
16402;DHT22;8310;44.626;11.176;2022-10-17T04:01:57;17.40;55.70
16402;DHT22;8310;44.626;11.176;2022-10-17T04:04:26;17.30;55.70
16402;DHT22;8310;44.626;11.176;2022-10-17T04:06:56;17.30;55.70
16402;DHT22;8310;44.626;11.176;2022-10-17T04:09:24;17.20;55.80
16402;DHT22;8310;44.626;11.176;2022-10-17T04:11:52;17.20;55.90
16402;DHT22;8310;44.626;11.176;2022-10-17T04:14:20;17.20;55.90
16402;DHT22;8310;44.626;11.176;2022-10-17T04:16:48;17.20;56.00
16402;DHT22;8310;44.626;11.176;2022-10-17T04:19:15;17.10;56.00
16402;DHT22;8310;44.626;11.176;2022-10-17T04:21:43;17.20;56.10
16402;DHT22;8310;44.626;11.176;2022-10-17T04:24:11;17.20;56.20
16402;DHT22;8310;44.626;11.176;2022-10-17T04:26:38;17.20;56.10
16402;DHT22;8310;44.626;11.176;2022-10-17T04:29:06;17.20;56.20
16402;DHT22;8310;44.626;11.176;2022-10-17T04:31:35;17.20;56.20
16402;DHT22;8310;44.626;11.176;2022-10-17T04:34:03;17.20;56.20
16402;DHT22;8310;44.626;11.176;2022-10-17T04:36:30;17.20;56.30
16402;DHT22;8310;44.626;11.176;2022-10-17T04:38:59;17.20;56.30
16402;DHT22;8310;44.626;11.176;2022-10-17T04:41:27;17.20;56.30
16402;DHT22;8310;44.626;11.176;2022-10-17T04:43:55;17.20;56.30
16402;DHT22;8310;44.626;11.176;2022-10-17T04:46:22;17.20;56.30
16402;DHT22;8310;44.626;11.176;2022-10-17T04:48:52;17.20;56.30
16402;DHT22;8310;44.626;11.176;2022-10-17T04:51:20;17.20;56.30
16402;DHT22;8310;44.626;11.176;2022-10-17T04:53:48;17.20;56.30
16402;DHT22;8310;44.626;11.176;2022-10-17T04:56:17;17.20;56.30
16402;DHT22;8310;44.626;11.176;2022-10-17T04:58:45;17.20;56.40
16402;DHT22;8310;44.626;11.176;2022-10-17T05:01:21;17.20;56.40
16402;DHT22;8310;44.626;11.176;2022-10-17T05:03:49;17.20;56.30
16402;DHT22;8310;44.626;11.176;2022-10-17T05:06:20;17.20;56.30
16402;DHT22;8310;44.626;11.176;2022-10-17T05:08:48;17.20;56.30
16402;DHT22;8310;44.626;11.176;2022-10-17T05:11:17;17.20;56.20
16402;DHT22;8310;44.626;11.176;2022-10-17T05:13:49;17.10;56.20
16402;DHT22;8310;44.626;11.176;2022-10-17T05:16:18;17.10;56.20
16402;DHT22;8310;44.626;11.176;2022-10-17T05:18:47;17.00;56.20
16402;DHT22;8310;44.626;11.176;2022-10-17T05:21:15;17.00;56.30
16402;DHT22;8310;44.626;11.176;2022-10-17T05:23:44;16.90;56.20
16402;DHT22;8310;44.626;11.176;2022-10-17T05:26:12;16.90;56.30
16402;DHT22;8310;44.626;11.176;2022-10-17T05:28:39;16.90;56.30
16402;DHT22;8310;44.626;11.176;2022-10-17T05:31:08;16.80;56.40
16402;DHT22;8310;44.626;11.176;2022-10-17T05:33:37;16.80;56.50
16402;DHT22;8310;44.626;11.176;2022-10-17T05:36:05;16.80;56.50
16402;DHT22;8310;44.626;11.176;2022-10-17T05:38:34;16.80;56.50
16402;DHT22;8310;44.626;11.176;2022-10-17T05:41:04;16.80;56.50
16402;DHT22;8310;44.626;11.176;2022-10-17T05:43:33;16.80;56.60
16402;DHT22;8310;44.626;11.176;2022-10-17T05:46:03;16.70;56.50
16402;DHT22;8310;44.626;11.176;2022-10-17T05:48:31;16.80;56.70
16402;DHT22;8310;44.626;11.176;2022-10-17T05:50:59;16.70;56.60
16402;DHT22;8310;44.626;11.176;2022-10-17T05:53:29;16.80;56.70
16402;DHT22;8310;44.626;11.176;2022-10-17T05:55:57;16.80;56.70
16402;DHT22;8310;44.626;11.176;2022-10-17T05:58:27;16.80;56.70
16402;DHT22;8310;44.626;11.176;2022-10-17T06:00:57;16.80;56.80
16402;DHT22;8310;44.626;11.176;2022-10-17T06:03:25;16.80;56.80
16402;DHT22;8310;44.626;11.176;2022-10-17T06:05:53;16.80;56.80
16402;DHT22;8310;44.626;11.176;2022-10-17T06:08:21;16.80;56.80
16402;DHT22;8310;44.626;11.176;2022-10-17T06:10:49;16.90;56.90
16402;DHT22;8310;44.626;11.176;2022-10-17T06:13:17;16.90;56.90
16402;DHT22;8310;44.626;11.176;2022-10-17T06:15:46;16.90;56.90
16402;DHT22;8310;44.626;11.176;2022-10-17T06:18:17;16.90;56.90
16402;DHT22;8310;44.626;11.176;2022-10-17T06:20:44;16.90;56.90
16402;DHT22;8310;44.626;11.176;2022-10-17T06:23:12;17.00;57.00
16402;DHT22;8310;44.626;11.176;2022-10-17T06:25:40;17.00;57.10
16402;DHT22;8310;44.626;11.176;2022-10-17T06:28:08;17.00;57.10
16402;DHT22;8310;44.626;11.176;2022-10-17T06:30:37;17.10;57.10
16402;DHT22;8310;44.626;11.176;2022-10-17T06:33:08;17.10;57.10
16402;DHT22;8310;44.626;11.176;2022-10-17T06:35:40;17.10;57.10
16402;DHT22;8310;44.626;11.176;2022-10-17T06:38:07;17.10;57.10
16402;DHT22;8310;44.626;11.176;2022-10-17T06:40:35;17.10;57.10
16402;DHT22;8310;44.626;11.176;2022-10-17T06:43:02;17.00;57.10
16402;DHT22;8310;44.626;11.176;2022-10-17T06:45:30;17.00;57.10
16402;DHT22;8310;44.626;11.176;2022-10-17T06:47:57;17.00;57.10
16402;DHT22;8310;44.626;11.176;2022-10-17T06:50:27;17.00;57.20
16402;DHT22;8310;44.626;11.176;2022-10-17T06:52:55;17.00;57.20
16402;DHT22;8310;44.626;11.176;2022-10-17T06:55:22;17.00;57.20
16402;DHT22;8310;44.626;11.176;2022-10-17T06:57:50;16.90;57.10
16402;DHT22;8310;44.626;11.176;2022-10-17T07:00:20;16.90;57.10
16402;DHT22;8310;44.626;11.176;2022-10-17T07:02:53;16.90;57.20
16402;DHT22;8310;44.626;11.176;2022-10-17T07:05:21;16.90;57.20
16402;DHT22;8310;44.626;11.176;2022-10-17T07:07:50;16.80;57.30
16402;DHT22;8310;44.626;11.176;2022-10-17T07:10:18;16.90;57.30
16402;DHT22;8310;44.626;11.176;2022-10-17T07:12:45;16.90;57.40
16402;DHT22;8310;44.626;11.176;2022-10-17T07:15:12;16.90;57.40
16402;DHT22;8310;44.626;11.176;2022-10-17T07:17:40;16.90;57.50
16402;DHT22;8310;44.626;11.176;2022-10-17T07:20:08;16.90;57.50
16402;DHT22;8310;44.626;11.176;2022-10-17T07:22:36;17.00;57.60
16402;DHT22;8310;44.626;11.176;2022-10-17T07:25:07;17.00;57.60
16402;DHT22;8310;44.626;11.176;2022-10-17T07:27:34;17.00;57.70
16402;DHT22;8310;44.626;11.176;2022-10-17T07:30:02;17.10;57.70
16402;DHT22;8310;44.626;11.176;2022-10-17T07:32:30;17.10;57.70
16402;DHT22;8310;44.626;11.176;2022-10-17T07:34:57;17.10;57.70
16402;DHT22;8310;44.626;11.176;2022-10-17T07:37:25;17.20;57.80
16402;DHT22;8310;44.626;11.176;2022-10-17T07:39:53;17.20;57.90
16402;DHT22;8310;44.626;11.176;2022-10-17T07:42:22;17.20;57.90
16402;DHT22;8310;44.626;11.176;2022-10-17T07:44:50;17.30;57.90
16402;DHT22;8310;44.626;11.176;2022-10-17T07:47:17;17.30;58.00
16402;DHT22;8310;44.626;11.176;2022-10-17T07:49:45;17.40;58.10
16402;DHT22;8310;44.626;11.176;2022-10-17T07:52:13;17.50;58.20
16402;DHT22;8310;44.626;11.176;2022-10-17T07:54:41;17.50;58.20
16402;DHT22;8310;44.626;11.176;2022-10-17T07:57:09;17.60;58.20
16402;DHT22;8310;44.626;11.176;2022-10-17T07:59:39;17.60;58.30
16402;DHT22;8310;44.626;11.176;2022-10-17T08:02:07;17.70;58.30
16402;DHT22;8310;44.626;11.176;2022-10-17T08:04:35;17.70;58.30
16402;DHT22;8310;44.626;11.176;2022-10-17T08:07:02;17.80;58.30
16402;DHT22;8310;44.626;11.176;2022-10-17T08:09:29;17.80;58.40
16402;DHT22;8310;44.626;11.176;2022-10-17T08:11:57;17.90;58.40
16402;DHT22;8310;44.626;11.176;2022-10-17T08:14:26;17.90;58.40
16402;DHT22;8310;44.626;11.176;2022-10-17T08:16:55;18.00;58.50
16402;DHT22;8310;44.626;11.176;2022-10-17T08:19:23;18.00;58.50
16402;DHT22;8310;44.626;11.176;2022-10-17T08:21:50;18.10;58.70
16402;DHT22;8310;44.626;11.176;2022-10-17T08:24:19;18.10;58.70
16402;DHT22;8310;44.626;11.176;2022-10-17T08:26:47;18.20;58.70
16402;DHT22;8310;44.626;11.176;2022-10-17T08:29:15;18.20;58.80
16402;DHT22;8310;44.626;11.176;2022-10-17T08:31:43;18.30;58.90
16402;DHT22;8310;44.626;11.176;2022-10-17T08:34:15;18.40;59.00
16402;DHT22;8310;44.626;11.176;2022-10-17T08:36:42;18.50;59.00
16402;DHT22;8310;44.626;11.176;2022-10-17T08:39:10;18.60;59.20
16402;DHT22;8310;44.626;11.176;2022-10-17T08:41:51;18.70;59.30
16402;DHT22;8310;44.626;11.176;2022-10-17T08:44:29;18.80;59.50
16402;DHT22;8310;44.626;11.176;2022-10-17T08:47:01;18.90;59.80
16402;DHT22;8310;44.626;11.176;2022-10-17T08:49:38;19.10;60.20
16402;DHT22;8310;44.626;11.176;2022-10-17T08:52:15;19.30;60.50
16402;DHT22;8310;44.626;11.176;2022-10-17T08:54:45;19.50;60.80
16402;DHT22;8310;44.626;11.176;2022-10-17T08:57:15;19.80;61.10
16402;DHT22;8310;44.626;11.176;2022-10-17T08:59:48;20.00;61.20
16402;DHT22;8310;44.626;11.176;2022-10-17T09:02:38;20.20;61.30
16402;DHT22;8310;44.626;11.176;2022-10-17T09:05:25;20.40;61.40
16402;DHT22;8310;44.626;11.176;2022-10-17T09:08:02;20.60;61.40
16402;DHT22;8310;44.626;11.176;2022-10-17T09:10:39;20.70;61.40
16402;DHT22;8310;44.626;11.176;2022-10-17T09:13:18;20.90;61.50
16402;DHT22;8310;44.626;11.176;2022-10-17T09:18:41;21.20;61.50
16402;DHT22;8310;44.626;11.176;2022-10-17T09:21:18;21.30;61.60
16402;DHT22;8310;44.626;11.176;2022-10-17T09:23:49;21.40;61.60
16402;DHT22;8310;44.626;11.176;2022-10-17T09:26:18;21.60;61.70
16402;DHT22;8310;44.626;11.176;2022-10-17T09:28:51;21.70;61.70
16402;DHT22;8310;44.626;11.176;2022-10-17T09:31:22;21.90;61.80
16402;DHT22;8310;44.626;11.176;2022-10-17T09:33:53;22.00;61.70
16402;DHT22;8310;44.626;11.176;2022-10-17T09:36:24;22.20;61.90
16402;DHT22;8310;44.626;11.176;2022-10-17T09:38:55;22.30;61.80
16402;DHT22;8310;44.626;11.176;2022-10-17T09:41:28;22.40;61.70
16402;DHT22;8310;44.626;11.176;2022-10-17T09:43:57;22.50;61.70
16402;DHT22;8310;44.626;11.176;2022-10-17T09:46:29;22.60;61.70
16402;DHT22;8310;44.626;11.176;2022-10-17T09:49:02;22.70;61.80
16402;DHT22;8310;44.626;11.176;2022-10-17T09:51:32;22.90;61.80
16402;DHT22;8310;44.626;11.176;2022-10-17T09:54:03;23.00;61.80
16402;DHT22;8310;44.626;11.176;2022-10-17T09:56:59;23.10;61.80
16402;DHT22;8310;44.626;11.176;2022-10-17T09:59:32;23.20;61.80
16402;DHT22;8310;44.626;11.176;2022-10-17T10:02:19;23.30;61.80
16402;DHT22;8310;44.626;11.176;2022-10-17T10:04:58;23.40;61.70
16402;DHT22;8310;44.626;11.176;2022-10-17T10:07:27;23.50;61.80
16402;DHT22;8310;44.626;11.176;2022-10-17T10:09:56;23.60;61.80
16402;DHT22;8310;44.626;11.176;2022-10-17T10:12:27;23.70;61.80
16402;DHT22;8310;44.626;11.176;2022-10-17T10:14:56;23.80;62.00
16402;DHT22;8310;44.626;11.176;2022-10-17T10:17:36;23.90;61.90
16402;DHT22;8310;44.626;11.176;2022-10-17T10:20:26;24.00;61.80
16402;DHT22;8310;44.626;11.176;2022-10-17T10:23:06;24.20;61.80
16402;DHT22;8310;44.626;11.176;2022-10-17T10:25:34;24.20;61.70
16402;DHT22;8310;44.626;11.176;2022-10-17T10:28:09;24.30;61.80
16402;DHT22;8310;44.626;11.176;2022-10-17T10:30:36;24.40;61.90
16402;DHT22;8310;44.626;11.176;2022-10-17T10:33:05;24.40;61.80
16402;DHT22;8310;44.626;11.176;2022-10-17T10:35:34;24.50;61.80
16402;DHT22;8310;44.626;11.176;2022-10-17T10:38:08;24.50;61.70
16402;DHT22;8310;44.626;11.176;2022-10-17T10:40:43;24.60;61.80
16402;DHT22;8310;44.626;11.176;2022-10-17T10:43:21;24.70;61.70
16402;DHT22;8310;44.626;11.176;2022-10-17T10:45:50;24.80;61.70
16402;DHT22;8310;44.626;11.176;2022-10-17T10:48:20;24.90;61.60
16402;DHT22;8310;44.626;11.176;2022-10-17T10:50:49;25.00;61.60
16402;DHT22;8310;44.626;11.176;2022-10-17T10:53:31;25.00;61.50
16402;DHT22;8310;44.626;11.176;2022-10-17T10:56:03;25.10;61.60
16402;DHT22;8310;44.626;11.176;2022-10-17T10:58:55;25.20;61.70
16402;DHT22;8310;44.626;11.176;2022-10-17T11:01:31;25.30;61.50
16402;DHT22;8310;44.626;11.176;2022-10-17T11:04:12;25.40;61.50
16402;DHT22;8310;44.626;11.176;2022-10-17T11:06:43;25.50;61.60
16402;DHT22;8310;44.626;11.176;2022-10-17T11:09:18;25.60;61.70
16402;DHT22;8310;44.626;11.176;2022-10-17T11:11:57;25.60;61.60
16402;DHT22;8310;44.626;11.176;2022-10-17T11:14:37;25.80;61.70
16402;DHT22;8310;44.626;11.176;2022-10-17T11:17:12;25.80;61.60
16402;DHT22;8310;44.626;11.176;2022-10-17T11:19:44;25.90;61.70
16402;DHT22;8310;44.626;11.176;2022-10-17T11:22:35;26.00;61.70
16402;DHT22;8310;44.626;11.176;2022-10-17T11:25:07;26.10;61.70
16402;DHT22;8310;44.626;11.176;2022-10-17T11:27:40;26.30;61.60
16402;DHT22;8310;44.626;11.176;2022-10-17T11:30:11;26.30;61.40
16402;DHT22;8310;44.626;11.176;2022-10-17T11:32:43;26.40;61.40
16402;DHT22;8310;44.626;11.176;2022-10-17T11:35:18;26.50;61.60
16402;DHT22;8310;44.626;11.176;2022-10-17T11:37:52;26.60;61.50
16402;DHT22;8310;44.626;11.176;2022-10-17T11:40:26;26.60;61.30
16402;DHT22;8310;44.626;11.176;2022-10-17T11:42:59;26.70;61.20
16402;DHT22;8310;44.626;11.176;2022-10-17T11:45:30;26.70;61.10
16402;DHT22;8310;44.626;11.176;2022-10-17T11:48:05;26.70;61.00
16402;DHT22;8310;44.626;11.176;2022-10-17T11:50:34;26.70;61.10
16402;DHT22;8310;44.626;11.176;2022-10-17T11:53:11;26.70;61.20
16402;DHT22;8310;44.626;11.176;2022-10-17T11:55:41;26.90;61.40
16402;DHT22;8310;44.626;11.176;2022-10-17T11:58:20;27.00;61.60
16402;DHT22;8310;44.626;11.176;2022-10-17T12:00:56;27.10;61.60
16402;DHT22;8310;44.626;11.176;2022-10-17T12:03:34;27.20;61.50
16402;DHT22;8310;44.626;11.176;2022-10-17T12:06:12;27.30;61.30
16402;DHT22;8310;44.626;11.176;2022-10-17T12:08:50;27.30;61.20
16402;DHT22;8310;44.626;11.176;2022-10-17T12:11:28;27.40;62.10
16402;DHT22;8310;44.626;11.176;2022-10-17T12:14:00;27.50;61.60
16402;DHT22;8310;44.626;11.176;2022-10-17T12:16:41;27.60;61.60
16402;DHT22;8310;44.626;11.176;2022-10-17T12:19:20;27.80;61.60
16402;DHT22;8310;44.626;11.176;2022-10-17T12:22:03;27.90;61.50
16402;DHT22;8310;44.626;11.176;2022-10-17T12:24:39;27.90;61.20
16402;DHT22;8310;44.626;11.176;2022-10-17T12:27:33;28.00;61.10
16402;DHT22;8310;44.626;11.176;2022-10-17T12:30:04;28.00;60.90
16402;DHT22;8310;44.626;11.176;2022-10-17T12:32:32;28.00;60.80
16402;DHT22;8310;44.626;11.176;2022-10-17T12:34:59;28.00;60.90
16402;DHT22;8310;44.626;11.176;2022-10-17T12:40:58;28.10;61.00
16402;DHT22;8310;44.626;11.176;2022-10-17T12:43:51;28.10;60.90
16402;DHT22;8310;44.626;11.176;2022-10-17T12:46:54;28.20;60.70
16402;DHT22;8310;44.626;11.176;2022-10-17T12:49:41;28.10;60.50
16402;DHT22;8310;44.626;11.176;2022-10-17T12:52:29;28.10;60.50
16402;DHT22;8310;44.626;11.176;2022-10-17T12:55:16;28.10;61.20
16402;DHT22;8310;44.626;11.176;2022-10-17T12:57:52;28.10;60.50
16402;DHT22;8310;44.626;11.176;2022-10-17T13:00:28;28.10;60.60
16402;DHT22;8310;44.626;11.176;2022-10-17T13:03:04;28.10;60.60
16402;DHT22;8310;44.626;11.176;2022-10-17T13:05:35;28.20;60.60
16402;DHT22;8310;44.626;11.176;2022-10-17T13:08:06;28.10;60.20
16402;DHT22;8310;44.626;11.176;2022-10-17T13:10:37;28.10;60.00
16402;DHT22;8310;44.626;11.176;2022-10-17T13:13:14;28.10;60.00
16402;DHT22;8310;44.626;11.176;2022-10-17T13:15:45;28.10;60.10
16402;DHT22;8310;44.626;11.176;2022-10-17T13:18:18;28.10;60.20
16402;DHT22;8310;44.626;11.176;2022-10-17T13:20:55;28.10;60.10
16402;DHT22;8310;44.626;11.176;2022-10-17T13:23:23;28.10;60.00
16402;DHT22;8310;44.626;11.176;2022-10-17T13:26:05;28.10;59.90
16402;DHT22;8310;44.626;11.176;2022-10-17T13:28:35;28.10;59.90
16402;DHT22;8310;44.626;11.176;2022-10-17T13:31:02;28.10;59.80
16402;DHT22;8310;44.626;11.176;2022-10-17T13:33:33;28.10;59.70
16402;DHT22;8310;44.626;11.176;2022-10-17T13:36:02;28.00;59.70
16402;DHT22;8310;44.626;11.176;2022-10-17T13:38:32;28.00;59.80
16402;DHT22;8310;44.626;11.176;2022-10-17T13:41:01;28.10;59.90
16402;DHT22;8310;44.626;11.176;2022-10-17T13:43:30;28.10;59.90
16402;DHT22;8310;44.626;11.176;2022-10-17T13:46:02;28.10;59.80
16402;DHT22;8310;44.626;11.176;2022-10-17T13:48:32;28.20;59.90
16402;DHT22;8310;44.626;11.176;2022-10-17T13:51:02;28.20;59.90
16402;DHT22;8310;44.626;11.176;2022-10-17T13:53:33;28.20;59.80
16402;DHT22;8310;44.626;11.176;2022-10-17T13:56:02;28.20;59.70
16402;DHT22;8310;44.626;11.176;2022-10-17T13:58:39;28.20;59.70
16402;DHT22;8310;44.626;11.176;2022-10-17T14:01:10;28.20;59.70
16402;DHT22;8310;44.626;11.176;2022-10-17T14:03:40;28.30;59.60
16402;DHT22;8310;44.626;11.176;2022-10-17T14:06:16;28.20;59.30
16402;DHT22;8310;44.626;11.176;2022-10-17T14:08:53;28.20;59.40
16402;DHT22;8310;44.626;11.176;2022-10-17T14:11:25;28.20;59.40
16402;DHT22;8310;44.626;11.176;2022-10-17T14:13:54;28.20;59.50
16402;DHT22;8310;44.626;11.176;2022-10-17T14:16:25;28.20;59.50
16402;DHT22;8310;44.626;11.176;2022-10-17T14:18:54;28.20;59.50
16402;DHT22;8310;44.626;11.176;2022-10-17T14:21:23;28.30;59.40
16402;DHT22;8310;44.626;11.176;2022-10-17T14:23:52;28.30;59.30
16402;DHT22;8310;44.626;11.176;2022-10-17T14:26:46;28.30;59.20
16402;DHT22;8310;44.626;11.176;2022-10-17T14:29:20;28.30;59.20
16402;DHT22;8310;44.626;11.176;2022-10-17T14:31:57;28.30;59.20
16402;DHT22;8310;44.626;11.176;2022-10-17T14:34:29;28.30;59.20
16402;DHT22;8310;44.626;11.176;2022-10-17T14:36:57;28.40;59.30
16402;DHT22;8310;44.626;11.176;2022-10-17T14:39:26;28.50;59.40
16402;DHT22;8310;44.626;11.176;2022-10-17T14:41:54;28.60;59.40
16402;DHT22;8310;44.626;11.176;2022-10-17T14:44:27;28.70;59.40
16402;DHT22;8310;44.626;11.176;2022-10-17T14:46:58;28.80;59.40
16402;DHT22;8310;44.626;11.176;2022-10-17T14:49:33;28.90;59.40
16402;DHT22;8310;44.626;11.176;2022-10-17T14:52:23;29.00;59.40
16402;DHT22;8310;44.626;11.176;2022-10-17T14:54:51;29.10;59.30
16402;DHT22;8310;44.626;11.176;2022-10-17T14:57:23;29.20;59.30
16402;DHT22;8310;44.626;11.176;2022-10-17T14:59:51;29.30;59.30
16402;DHT22;8310;44.626;11.176;2022-10-17T15:02:27;29.40;59.20
16402;DHT22;8310;44.626;11.176;2022-10-17T15:04:55;29.60;59.30
16402;DHT22;8310;44.626;11.176;2022-10-17T15:07:22;29.70;59.30
16402;DHT22;8310;44.626;11.176;2022-10-17T15:09:51;29.80;59.20
16402;DHT22;8310;44.626;11.176;2022-10-17T15:12:22;30.00;59.30
16402;DHT22;8310;44.626;11.176;2022-10-17T15:14:51;30.10;59.20
16402;DHT22;8310;44.626;11.176;2022-10-17T15:17:22;30.10;59.00
16402;DHT22;8310;44.626;11.176;2022-10-17T15:19:52;30.10;58.90
16402;DHT22;8310;44.626;11.176;2022-10-17T15:22:20;30.10;58.70
16402;DHT22;8310;44.626;11.176;2022-10-17T15:24:48;30.10;58.60
16402;DHT22;8310;44.626;11.176;2022-10-17T15:27:16;30.00;58.60
16402;DHT22;8310;44.626;11.176;2022-10-17T15:29:46;30.00;58.50
16402;DHT22;8310;44.626;11.176;2022-10-17T15:32:15;29.90;58.40
16402;DHT22;8310;44.626;11.176;2022-10-17T15:34:43;29.80;58.30
16402;DHT22;8310;44.626;11.176;2022-10-17T15:37:17;29.70;58.30
16402;DHT22;8310;44.626;11.176;2022-10-17T15:39:48;29.60;58.20
16402;DHT22;8310;44.626;11.176;2022-10-17T15:42:18;29.50;58.20
16402;DHT22;8310;44.626;11.176;2022-10-17T15:44:46;29.40;58.20
16402;DHT22;8310;44.626;11.176;2022-10-17T15:47:21;29.30;58.10
16402;DHT22;8310;44.626;11.176;2022-10-17T15:49:50;29.20;58.00
16402;DHT22;8310;44.626;11.176;2022-10-17T15:52:19;29.20;58.10
16402;DHT22;8310;44.626;11.176;2022-10-17T15:54:47;29.10;58.00
16402;DHT22;8310;44.626;11.176;2022-10-17T15:57:17;29.00;58.00
16402;DHT22;8310;44.626;11.176;2022-10-17T15:59:46;28.90;58.00
16402;DHT22;8310;44.626;11.176;2022-10-17T16:02:15;28.80;58.00
16402;DHT22;8310;44.626;11.176;2022-10-17T16:04:44;28.80;57.90
16402;DHT22;8310;44.626;11.176;2022-10-17T16:07:12;28.60;57.80